Pagrindinis puslapis
METAR-TAF:

METAR-TAF

Oro uostai :

Džamšedpuras, Indija

platuma: 22-48-49N, ilguma: 086-10-05E, Aukštis: 146 m

Dabartinis oras

Ataskaita buvo paskelbta 57 minutes, ne 10:00 UTC
Ramus vėjas
Temperatūra 29°C
Drėgmė 37%
Slėgis 1012 hPa
Matomumas: 5000 m
migla

METAR: VEJS 191000Z 00000KT 5000 HZ NSC 29/13 Q1012

Laikas: 16:27 (10:57 UTC)

Prognozė

Ataskaita buvo paskelbta 2 valandos ir 57 minutes, ne 08:00 UTC
Prognozė galioja nuo 19 metu 09 UTC su 19 metu 18 UTC
Vėjas 3 kt iš Šiaurės Vakarų
Matomumas: 4000 m
migla
Tapsmas
nuo 19 metu 15 UTC su 19 metu 17 UTC
Vėjas kt iš Šiaurės
Matomumas: 3000 m
migla

TAF: VEJS 190800Z 1909/1918 31003KT 4000 HZ NSC BECMG 1915/1917 00000KT 3000 HZ

Orai ataskaitas ir orų prognozės (METAR, TAF).

turimą stotys yra geltonos ir raudonos taškus žemėlapyje.

Perkelti pele per norėdami pamatyti stoties vardą.

Tada spustelėkite, norėdami matyti oro stebėjimo ir prognozės.

Norėdami pakeisti žemėlapį: spustelėkite ant žalios mygtukų su juodo kryžiaus žemyn,; žalią mygtuką su brūkšneliu, jei norite nutolinti; arba žalių rodyklių gretimoms žemėlapius.


METAR-TAF: